Flight Track Log - Related Links

Times and Time Zones

All times are in EDT time to prevent confusion due to time zone crossing. See the XOJ750 flight status page for this flight to view local times or setup timezone preferences in your user account.

Time Position Orientation Groundspeed Altitude Reporting Facility
EDT Latitude Longitude Course Direction KTS MPH feet Rate Location/Type
Thu 12:40:54 PM 40.8167 -74.1333 270° West 209 241 1,600  Level New York TRACON
Thu 12:41:54 PM 40.8167 -74.2167 270° West 240 276 4,200 2,851 Climbing New York TRACON
Thu 12:44:16 PM 40.8339 -74.4381 276° West 267 307 11,200 2,703 Climbing New York Center
Thu 12:45:16 PM 40.8486 -74.5650 279° West 304 350 13,300 1,884 Climbing New York Center
Thu 12:46:00 PM 40.9000 -74.9633 270° West  Level FlightAware Approximate
Thu 12:46:17 PM 40.8614 -74.6808 278° West 341 392 15,000  Level New York Center
Thu 12:47:15 PM 40.8483 -74.8228 263° West 360 414 17,900 2,370 Climbing New York Center
Thu 12:48:16 PM 40.8314 -74.9506 260° West 365 420 19,700 1,736 Climbing New York Center
Thu 12:49:16 PM 40.8161 -75.0869 262° West 365 420 21,400 1,714 Climbing New York Center
Thu 12:50:15 PM 40.7986 -75.2228 260° West 370 426 23,100 1,664 Climbing New York Center
Thu 12:51:15 PM 40.7811 -75.3506 260° West 385 443 24,700 1,537 Climbing New York Center
Thu 12:52:16 PM 40.7631 -75.4889 260° West 395 455 26,200 1,475 Climbing New York Center
Thu 12:53:17 PM 40.7428 -75.6356 260° West 400 460 27,700 1,488 Climbing New York Center
Thu 12:54:17 PM 40.7281 -75.7822 263° West 405 466 29,200 1,400 Climbing New York Center
Thu 12:55:17 PM 40.7050 -75.9367 259° West 418 481 30,500 1,322 Climbing New York Center
Thu 12:56:15 PM 40.7061 -76.0956 271° West 425 489 31,800 1,322 Climbing New York Center
Thu 12:57:15 PM 40.7278 -76.2589 280° West 438 504 33,100 1,240 Climbing New York Center
Thu 12:58:16 PM 40.7483 -76.4414 279° West 453 521 34,300 1,100 Climbing New York Center
Thu 12:59:15 PM 40.7714 -76.6133 280° West 463 533 35,300 1,050 Climbing New York Center
Thu 01:00:16 PM 40.7914 -76.7931 278° West 485 558 36,400 1,033 Climbing New York Center
Thu 01:01:17 PM 40.8139 -76.9653 280° West 492 566 37,400 908 Climbing New York Center
Thu 01:02:15 PM 40.8356 -77.1481 279° West 492 566 38,200 807 Climbing New York Center
Thu 01:03:16 PM 40.8569 -77.3286 279° West 492 566 39,000 802 Climbing New York Center
Thu 01:05:07 PM 40.8950 -77.6686 279° West 495 570 40,500 772 Climbing Cleveland Center
Thu 01:06:07 PM 40.9142 -77.8464 278° West 495 570 41,200 750 Climbing Cleveland Center
Thu 01:07:07 PM 40.9350 -78.0269 279° West 500 575 42,000 800 Climbing Cleveland Center
Thu 01:08:07 PM 40.9533 -78.1994 278° West 500 575 42,800 500 Climbing Cleveland Center
Thu 01:09:07 PM 40.9758 -78.3800 279° West 500 575 43,000 100 Climbing Cleveland Center
Thu 01:10:07 PM 40.9936 -78.5583 278° West 500 575 43,000  Level Cleveland Center
Thu 01:11:07 PM 41.0114 -78.7394 277° West 500 575 43,000  Level Cleveland Center
Thu 01:12:07 PM 41.0308 -78.9206 278° West 500 575 43,000  Level Cleveland Center
Thu 01:13:07 PM 41.0478 -79.0992 277° West 500 575 43,000  Level Cleveland Center
Thu 01:14:07 PM 41.0667 -79.2806 278° West 500 575 43,000  Level Cleveland Center
Thu 01:15:07 PM 41.0853 -79.4564 278° West 500 575 43,000  Level Cleveland Center
Thu 01:16:07 PM 41.1014 -79.6408 277° West 500 575 43,000  Level Cleveland Center
Thu 01:17:07 PM 41.1172 -79.8169 277° West 500 575 43,000  Level Cleveland Center
Thu 01:18:07 PM 41.1308 -79.9628 277° West 500 575 43,000  Level Cleveland Center
Thu 01:19:07 PM 41.1506 -80.1750 277° West 500 575 43,000  Level Cleveland Center
Thu 01:20:08 PM 41.1675 -80.3542 277° West 500 575 43,000  Level Cleveland Center
Thu 01:21:07 PM 41.1803 -80.5333 275° West 500 575 43,000  Level Cleveland Center
Thu 01:22:07 PM 41.1969 -80.7128 277° West 500 575 43,000  Level Cleveland Center
Thu 01:23:07 PM 41.2111 -80.8922 276° West 500 575 43,000  Level Cleveland Center
Thu 01:24:07 PM 41.2253 -81.0689 276° West 494 568 43,000  Level Cleveland Center
Thu 01:25:07 PM 41.2369 -81.2236 276° West 489 563 43,000  Level Cleveland Center
Thu 01:26:07 PM 41.2503 -81.4006 276° West 482 555 43,000  Level Cleveland Center
Thu 01:27:07 PM 41.2697 -81.5778 278° West 482 555 43,000  Level Cleveland Center
Thu 01:28:07 PM 41.2825 -81.7631 275° West 487 560 43,000  Level Cleveland Center
Thu 01:29:07 PM 41.2972 -81.9431 276° West 497 572 43,000  Level Cleveland Center
Thu 01:30:07 PM 41.3072 -82.1422 274° West 497 572 43,000  Level Cleveland Center
Thu 01:31:07 PM 41.3214 -82.3250 276° West 497 572 43,000  Level Cleveland Center
Thu 01:32:07 PM 41.3331 -82.5022 275° West 497 572 43,000  Level Cleveland Center
Thu 01:33:07 PM 41.3447 -82.6658 275° West 497 572 43,000  Level Cleveland Center
Thu 01:34:07 PM 41.3558 -82.8489 275° West 502 578 43,000  Level Cleveland Center
Thu 01:35:07 PM 41.3667 -83.0289 275° West 496 571 43,000  Level Cleveland Center
Thu 01:36:07 PM 41.3794 -83.2067 276° West 496 571 43,000  Level Cleveland Center
Thu 01:37:07 PM 41.3897 -83.3869 274° West 496 571 43,000  Level Cleveland Center
Thu 01:38:07 PM 41.3997 -83.5700 274° West 496 571 43,000 -900 Level Cleveland Center
Thu 01:39:07 PM 41.4117 -83.7450 275° West 496 571 41,200 -1,750 Descending Cleveland Center
Thu 01:40:07 PM 41.4217 -83.9064 275° West 472 543 39,500 -1,690 Descending Cleveland Center
Thu 01:41:29 PM 41.4358 -84.1161 275° West 447 514 37,200 -2,167 Descending Chicago Center
Thu 01:42:31 PM 41.4469 -84.3286 274° West 477 549 34,300 -2,488 Descending Chicago Center
Thu 01:43:32 PM 41.4567 -84.5111 274° West 492 566 32,100 -2,098 Descending Chicago Center
Thu 01:44:34 PM 41.4656 -84.6942 274° West 495 570 30,000 -1,306 Descending Chicago Center
Thu 01:45:36 PM 41.4753 -84.8722 274° West 485 558 29,400 -1,016 Descending Chicago Center
Thu 01:46:38 PM 41.4833 -85.0458 274° West 472 543 27,900 -1,645 Descending Chicago Center
Thu 01:47:40 PM 41.4908 -85.2247 273° West 479 551 26,000 -2,195 Descending Chicago Center
Thu 01:48:41 PM 41.4983 -85.4089 273° West 484 557 23,400 -2,293 Descending Chicago Center
Thu 01:49:43 PM 41.5061 -85.5756 274° West 431 496 21,300 -1,887 Descending Chicago Center
Thu 01:50:45 PM 41.5131 -85.7278 274° West 410 472 19,500 -1,756 Descending Chicago Center
Thu 01:51:46 PM 41.5192 -85.8847 273° West 421 484 17,700 -2,146 Descending Chicago Center
Thu 01:52:48 PM 41.5244 -86.0658 272° West 408 470 15,100 -2,177 Descending Chicago Center
Thu 01:53:50 PM 41.5231 -86.2181 269° West 409 471 13,200 -1,951 Descending Chicago Center
Thu 01:54:51 PM 41.5225 -86.3689 270° West 410 472 11,100 -1,561 Descending Chicago Center
Thu 01:55:53 PM 41.5217 -86.5086 270° West 383 441 10,000 -532 Descending Chicago Center
Thu 01:56:55 PM 41.5208 -86.6406 270° West 362 417 10,000  Level Chicago Center
Thu 01:57:56 PM 41.5197 -86.7758 269° West 357 411 10,000 -488 Level Chicago Center
Thu 01:58:58 PM 41.5186 -86.8828 269° West 289 333 9,000 -1,317 Descending Chicago Center
Thu 01:59:59 PM 41.5172 -86.9817 269° West 271 312 7,300 -1,512 Descending Chicago Center
Thu 02:01:01 PM 41.5450 -87.0914 289° West 265 305 5,900 -683 Descending Chicago Center
Thu 02:02:02 PM 41.5606 -87.1858 282° West 265 305 5,900 -439 Level Chicago Center
Thu 02:03:04 PM 41.5853 -87.2783 290° West 266 306 5,000 -968 Descending Chicago Center
Thu 02:04:06 PM 41.6081 -87.3711 288° West 266 306 3,900 -537 Descending Chicago Center
Thu 02:05:07 PM 41.6294 -87.4539 289° West 253 291 3,900  Level Chicago Center
Thu 02:06:09 PM 41.6497 -87.5353 288° West 242 278 3,900 -341 Level Chicago Center
Thu 02:07:10 PM 41.6872 -87.6161 302° West 226 260 3,200 -878 Descending Chicago Center
Thu 02:08:12 PM 41.7256 -87.6694 314° West 212 244 2,100 -878 Descending Chicago Center
Thu 02:09:13 PM 41.7586 -87.7161 314° West 195 224 1,400 -293 Descending Chicago Center
Thu 02:10:15 PM 41.7956 -87.6986 19° North 173 199 1,500 -98 Climbing Chicago Center
Thu 02:11:16 PM 41.8100 -87.7214 310° West 164 189 1,200 -295 Descending Chicago Center
Thu 02:13:00 PM 41.7833 -87.7500 340° North  Level FlightAware Approximate

Login

Don't have an account? Register now (free) for customized features, flight alerts, and more!